Time;durP1;ratioP1;P1;durP2;ratioP2;P2;SDS_P1;SDS_P2;PMS_P1;PMS_P2;Temp;Humidity;BMP_temperature;BMP_pressure;BME280_temperature;BME280_humidity;BME280_pressure;Samples;Min_cycle;Max_cycle;Signal;HPM_P1;HPM_P2
2021/06/02 00:02:14;;;;;;;13.90;10.18;;;;;;;10.02;100.00;100346.39;1634159;86;21120;-72
2021/06/02 00:04:47;;;;;;;15.45;9.70;;;;;;;10.02;100.00;100357.10;1640268;86;21744;-72
2021/06/02 00:07:18;;;;;;;16.23;11.18;;;;;;;10.03;100.00;100341.44;1639996;85;21788;-73
2021/06/02 00:09:44;;;;;;;16.50;10.30;;;;;;;10.03;100.00;100349.47;1637936;86;21021;-73
2021/06/02 00:12:13;;;;;;;17.40;12.53;;;;;;;10.03;100.00;100370.90;1621102;86;21172;-74
2021/06/02 00:14:40;;;;;;;14.15;10.05;;;;;;;10.03;100.00;100333.41;1610948;88;21574;-73
2021/06/02 00:17:07;;;;;;;18.35;12.23;;;;;;;10.06;100.00;100343.59;1611240;87;21714;-72
2021/06/02 00:19:36;;;;;;;21.42;14.35;;;;;;;10.06;100.00;100335.55;1611014;87;21178;-73
2021/06/02 00:22:07;;;;;;;22.32;14.73;;;;;;;10.08;100.00;100335.05;1600315;88;21110;-72
2021/06/02 00:24:33;;;;;;;24.60;15.78;;;;;;;10.09;100.00;100333.64;1558859;91;21159;-72
2021/06/02 00:27:03;;;;;;;19.62;12.28;;;;;;;10.12;100.00;100342.03;1616032;87;21219;-72
2021/06/02 00:29:33;;;;;;;21.12;14.73;;;;;;;10.15;100.00;100341.90;1588676;87;21698;-73
2021/06/02 00:32:07;;;;;;;15.53;12.18;;;;;;;10.15;100.00;100340.56;1638635;86;21487;-73
2021/06/02 00:34:34;;;;;;;21.23;14.00;;;;;;;10.17;100.00;100354.77;1639581;86;21034;-73
2021/06/02 00:37:02;;;;;;;22.20;14.85;;;;;;;10.18;100.00;100332.40;1639169;86;21460;-72
2021/06/02 00:39:30;;;;;;;29.00;17.55;;;;;;;10.19;100.00;100346.20;1639900;87;21053;-72
2021/06/02 00:41:57;;;;;;;25.82;18.57;;;;;;;10.22;100.00;100340.71;1639405;86;21200;-73
2021/06/02 00:44:24;;;;;;;25.90;17.07;;;;;;;10.25;100.00;100338.39;1638423;86;21657;-73
2021/06/02 00:46:52;;;;;;;26.05;17.42;;;;;;;10.25;100.00;100347.28;1639912;86;21590;-74
2021/06/02 00:49:24;;;;;;;23.07;14.25;;;;;;;10.25;100.00;100343.27;1640041;86;21598;-72
2021/06/02 00:52:07;;;;;;;21.82;12.37;;;;;;;10.25;100.00;100332.55;1641252;86;21346;-73
2021/06/02 00:54:38;;;;;;;13.60;9.30;;;;;;;10.24;100.00;100320.09;1640503;86;21108;-72
2021/06/02 00:57:13;;;;;;;18.48;12.85;;;;;;;10.24;100.00;100330.80;1639987;86;21080;-73
2021/06/02 01:00:08;;;;;;;20.25;14.10;;;;;;;10.21;100.00;100326.91;1627704;86;21173;-72
2021/06/02 01:02:35;;;;;;;10.93;7.55;;;;;;;10.21;100.00;100321.55;1610004;89;21582;-72
2021/06/02 01:05:02;;;;;;;11.10;8.25;;;;;;;10.19;100.00;100314.05;1612890;87;21481;-73
2021/06/02 01:07:29;;;;;;;12.45;8.48;;;;;;;10.20;100.00;100314.94;1634241;87;21072;-71
2021/06/02 01:09:56;;;;;;;16.20;11.33;;;;;;;10.20;100.00;100317.13;1639882;86;21152;-72
2021/06/02 01:12:27;;;;;;;25.80;13.78;;;;;;;10.20;100.00;100325.17;1618402;87;21475;-72
2021/06/02 01:14:55;;;;;;;25.52;15.08;;;;;;;10.21;100.00;100322.89;1626656;87;21162;-71
2021/06/02 01:17:28;;;;;;;26.50;16.07;;;;;;;10.23;100.00;100320.17;1629139;87;21637;-72
2021/06/02 01:19:59;;;;;;;23.55;14.78;;;;;;;10.26;100.00;100323.58;1629746;87;21628;-71
2021/06/02 01:22:28;;;;;;;27.80;18.32;;;;;;;10.26;100.00;100305.30;1611807;88;21053;-71
2021/06/02 01:24:55;;;;;;;20.17;13.28;;;;;;;10.23;100.00;100299.59;1611201;88;21752;-73
2021/06/02 01:27:21;;;;;;;22.37;15.20;;;;;;;10.21;100.00;100308.16;1612602;88;21657;-70
2021/06/02 01:29:50;;;;;;;16.82;11.90;;;;;;;10.17;100.00;100307.43;1596506;88;21728;-72
2021/06/02 01:32:39;;;;;;;12.37;7.92;;;;;;;10.16;100.00;100298.11;1591360;88;21158;-73
2021/06/02 01:35:47;;;;;;;10.85;5.83;;;;;;;10.12;100.00;100322.80;1590230;88;21128;-71
2021/06/02 01:38:56;;;;;;;8.70;6.53;;;;;;;10.05;100.00;100305.23;1591193;90;21183;-71
2021/06/02 01:41:52;;;;;;;8.63;6.70;;;;;;;9.98;100.00;100305.94;1591457;88;21143;-71
2021/06/02 01:44:50;;;;;;;9.93;7.10;;;;;;;9.95;100.00;100290.00;1591337;88;21139;-72
2021/06/02 01:47:31;;;;;;;9.18;6.20;;;;;;;9.95;100.00;100290.00;1591186;88;22281;-71
2021/06/02 01:50:21;;;;;;;10.03;6.78;;;;;;;9.94;100.00;100299.42;1591020;90;21144;-73
2021/06/02 01:53:16;;;;;;;9.73;6.33;;;;;;;9.94;100.00;100293.61;1622080;87;21128;-72
2021/06/02 01:56:25;;;;;;;9.08;6.65;;;;;;;9.95;100.00;100285.13;1622070;88;22220;-71
2021/06/02 01:59:16;;;;;;;12.35;7.50;;;;;;;9.97;100.00;100302.86;1641563;86;21471;-70
2021/06/02 02:01:58;;;;;;;16.07;9.85;;;;;;;9.99;100.00;100290.27;1648414;86;21099;-72
2021/06/02 02:04:43;;;;;;;30.72;19.75;;;;;;;10.01;100.00;100291.56;1648679;85;21699;-72
2021/06/02 02:07:44;;;;;;;32.70;17.62;;;;;;;10.04;100.00;100290.95;1615302;86;21108;-71
2021/06/02 02:10:50;;;;;;;18.23;13.03;;;;;;;10.08;100.00;100289.03;1602179;87;21057;-71
2021/06/02 02:13:31;;;;;;;16.37;10.65;;;;;;;10.12;100.00;100292.47;1597885;88;21224;-71
2021/06/02 02:16:26;;;;;;;17.82;8.60;;;;;;;10.11;100.00;100288.05;1620252;86;21193;-71
2021/06/02 02:19:38;;;;;;;12.98;6.92;;;;;;;10.08;100.00;100288.18;1623097;86;21144;-71
2021/06/02 02:22:38;;;;;;;14.65;8.75;;;;;;;10.05;100.00;100302.55;1622916;86;21093;-71
2021/06/02 02:25:17;;;;;;;14.28;9.00;;;;;;;10.01;100.00;100285.73;1623078;88;21455;-70
2021/06/02 02:28:01;;;;;;;35.15;15.18;;;;;;;9.98;100.00;100297.91;1588880;88;21112;-71
2021/06/02 02:31:03;;;;;;;17.45;12.15;;;;;;;9.94;100.00;100285.58;1614361;87;21120;-71
2021/06/02 02:33:59;;;;;;;17.30;11.50;;;;;;;9.94;100.00;100302.09;1569519;90;21118;-69
2021/06/02 02:36:41;;;;;;;17.32;12.35;;;;;;;9.91;100.00;100323.64;1587222;87;21149;-72
2021/06/02 02:39:27;;;;;;;17.40;11.68;;;;;;;9.88;100.00;100318.81;1588694;88;21661;-72
2021/06/02 02:42:23;;;;;;;14.78;8.13;;;;;;;9.87;100.00;100302.83;1588672;90;21110;-72
2021/06/02 02:45:34;;;;;;;23.57;14.10;;;;;;;9.86;100.00;100291.71;1588390;90;21612;-72
2021/06/02 02:48:40;;;;;;;21.42;13.85;;;;;;;9.84;100.00;100298.94;1588648;90;21127;-70
2021/06/02 02:51:37;;;;;;;22.80;14.43;;;;;;;9.82;100.00;100296.76;1588633;90;21084;-71
2021/06/02 02:54:18;;;;;;;25.00;16.37;;;;;;;9.80;100.00;100301.30;1566886;90;21680;-71
2021/06/02 02:57:08;;;;;;;20.65;12.20;;;;;;;9.80;100.00;100294.61;1587845;90;21075;-71
2021/06/02 03:00:08;;;;;;;8.83;6.33;;;;;;;9.78;100.00;100304.51;1588729;90;21119;-71
2021/06/02 03:03:06;;;;;;;11.40;7.37;;;;;;;9.75;100.00;100301.02;1589233;90;21052;-71
2021/06/02 03:05:37;;;;;;;7.78;6.17;;;;;;;9.70;100.00;100290.97;1611843;87;21115;-73
2021/06/02 03:08:36;;;;;;;7.90;5.42;;;;;;;9.68;100.00;100283.46;1600132;87;21425;-72
2021/06/02 03:11:17;;;;;;;10.45;5.33;;;;;;;9.67;100.00;100293.77;1554958;90;21202;-72
2021/06/02 03:14:17;;;;;;;8.10;5.03;;;;;;;9.65;100.00;100288.94;1602048;87;21204;-72
2021/06/02 03:16:58;;;;;;;7.75;6.05;;;;;;;9.65;100.00;100288.05;1645831;87;21154;-73
2021/06/02 03:19:42;;;;;;;12.50;7.22;;;;;;;9.63;100.00;100293.48;1650258;86;21106;-73
2021/06/02 03:22:22;;;;;;;12.53;8.75;;;;;;;9.62;100.00;100276.12;1620132;87;21615;-72
2021/06/02 03:25:10;;;;;;;12.70;6.65;;;;;;;9.62;100.00;100264.09;1650334;85;21118;-72
2021/06/02 03:27:49;;;;;;;9.73;5.62;;;;;;;9.62;100.00;100268.98;1645578;85;21114;-71
2021/06/02 03:30:38;;;;;;;10.68;5.97;;;;;;;9.61;100.00;100273.91;1593089;88;21173;-71
2021/06/02 03:33:35;;;;;;;7.15;5.62;;;;;;;9.61;100.00;100267.21;1579102;89;21648;-72
2021/06/02 03:36:31;;;;;;;10.10;6.15;;;;;;;9.60;100.00;100269.48;1596133;89;21201;-73
2021/06/02 03:39:13;;;;;;;10.00;6.25;;;;;;;9.61;100.00;100276.58;1595922;89;21057;-70
2021/06/02 03:42:01;;;;;;;16.07;10.10;;;;;;;9.60;100.00;100271.70;1596676;89;21164;-73
2021/06/02 03:44:48;;;;;;;13.20;8.85;;;;;;;9.62;100.00;100270.33;1589608;89;21113;-72
2021/06/02 03:47:35;;;;;;;17.40;7.78;;;;;;;9.62;100.00;100258.28;1558487;91;21619;-72
2021/06/02 03:50:27;;;;;;;12.20;8.40;;;;;;;9.66;100.00;100268.38;1606251;89;21380;-71
2021/06/02 03:53:22;;;;;;;19.67;9.73;;;;;;;9.67;100.00;100267.45;1606335;89;21141;-72
2021/06/02 03:55:55;;;;;;;;;;;;;;;9.68;100.00;100271.42;1582419;90;21376;-70
2021/06/02 03:58:49;;;;;;;13.22;7.40;;;;;;;9.71;100.00;100257.91;1598445;89;20292;-72
2021/06/02 04:01:35;;;;;;;11.33;6.80;;;;;;;9.75;100.00;100262.20;1606252;89;21161;-70
2021/06/02 04:04:32;;;;;;;9.33;6.70;;;;;;;9.75;100.00;100260.86;1605652;89;21174;-72
2021/06/02 04:07:08;;;;;;;13.00;7.03;;;;;;;9.78;100.00;100257.20;1607486;88;21172;-71
2021/06/02 04:09:43;;;;;;;9.28;6.70;;;;;;;9.81;100.00;100283.85;1608151;88;21538;-72
2021/06/02 04:12:27;;;;;;;11.20;7.28;;;;;;;9.83;100.00;100262.36;1600001;89;21142;-72
2021/06/02 04:14:57;;;;;;;10.32;7.00;;;;;;;9.85;100.00;100267.21;1580762;87;22172;-73
2021/06/02 04:17:26;;;;;;;12.18;7.03;;;;;;;9.87;100.00;100255.97;1636622;87;21045;-71
2021/06/02 04:19:54;;;;;;;13.03;7.50;;;;;;;9.89;100.00;100247.41;1635975;87;21105;-74
2021/06/02 04:22:23;;;;;;;10.55;6.67;;;;;;;9.92;100.00;100249.95;1622294;87;21204;-73
2021/06/02 04:24:50;;;;;;;7.12;5.97;;;;;;;9.95;100.00;100248.48;1606730;88;21070;-73
2021/06/02 04:27:18;;;;;;;10.08;6.08;;;;;;;9.99;100.00;100255.45;1573653;91;21145;-73
2021/06/02 04:29:48;;;;;;;8.68;6.58;;;;;;;10.03;100.00;100263.77;1571931;90;21239;-72
2021/06/02 04:32:15;;;;;;;8.13;6.40;;;;;;;10.06;100.00;100269.93;1580941;90;21045;-73
2021/06/02 04:34:42;;;;;;;7.12;6.08;;;;;;;10.04;100.00;100257.47;1581099;90;21212;-71
2021/06/02 04:37:10;;;;;;;8.35;5.35;;;;;;;10.04;100.00;100258.81;1581526;90;21405;-71
2021/06/02 04:39:43;;;;;;;8.33;5.28;;;;;;;10.03;100.00;100258.41;1581318;90;21121;-71
2021/06/02 04:42:10;;;;;;;8.90;5.58;;;;;;;10.02;100.00;100249.12;1580856;90;21178;-71
2021/06/02 04:44:37;;;;;;;17.37;10.93;;;;;;;10.02;100.00;100245.95;1582318;89;21197;-73
2021/06/02 04:47:05;;;;;;;11.75;8.85;;;;;;;10.06;100.00;100255.20;1580778;90;21145;-72
2021/06/02 04:50:07;;;;;;;7.28;6.12;;;;;;;10.11;100.00;100250.55;1581358;90;21081;-73
2021/06/02 04:53:02;;;;;;;7.03;5.42;;;;;;;10.15;100.00;100247.66;1580881;90;21666;-73
2021/06/02 04:56:09;;;;;;;9.03;5.60;;;;;;;10.24;100.00;100257.13;1581167;90;21662;-72
2021/06/02 04:59:23;;;;;;;6.55;4.87;;;;;;;10.27;100.00;100246.27;1580161;90;21132;-73
2021/06/02 05:02:27;;;;;;;11.55;6.67;;;;;;;10.30;100.00;100256.01;1581006;90;21675;-73
2021/06/02 05:05:33;;;;;;;11.40;5.92;;;;;;;10.35;100.00;100249.12;1580462;90;21141;-75
2021/06/02 05:08:59;;;;;;;5.83;4.42;;;;;;;10.39;100.00;100250.73;1582136;89;21156;-72
2021/06/02 05:12:16;;;;;;;8.73;5.83;;;;;;;10.39;100.00;100257.43;1582480;90;21632;-74
2021/06/02 05:15:22;;;;;;;9.33;5.55;;;;;;;10.38;100.00;100258.37;1588414;89;21048;-73
2021/06/02 05:18:31;;;;;;;8.68;5.22;;;;;;;10.40;100.00;100253.39;1599740;89;21082;-72
2021/06/02 05:24:42;;;;;;;5.28;4.30;;;;;;;10.42;100.00;100254.65;1587075;89;21137;-72
2021/06/02 05:27:20;;;;;;;7.72;4.80;;;;;;;10.41;100.00;100231.02;1614225;88;21204;-72
2021/06/02 05:30:11;;;;;;;8.93;5.00;;;;;;;10.41;100.00;100238.17;1609545;87;21120;-72
2021/06/02 05:33:13;;;;;;;5.08;4.05;;;;;;;10.42;100.00;100238.12;1610073;87;22058;-73
2021/06/02 05:36:08;;;;;;;5.65;3.98;;;;;;;10.45;100.00;100243.34;1610801;87;21708;-74
2021/06/02 05:39:23;;;;;;;4.70;3.35;;;;;;;10.45;100.00;100255.86;1623817;87;21049;-72
2021/06/02 05:42:10;;;;;;;6.03;3.60;;;;;;;10.44;100.00;100250.09;1611058;87;21600;-74
2021/06/02 05:45:17;;;;;;;5.90;3.27;;;;;;;10.43;100.00;100238.52;1611614;87;21136;-72
2021/06/02 05:48:19;;;;;;;4.45;3.60;;;;;;;10.43;100.00;100241.66;1640725;86;21120;-75
2021/06/02 05:51:38;;;;;;;5.67;3.70;;;;;;;10.40;100.00;100258.75;1641589;85;21119;-74
2021/06/02 05:54:27;;;;;;;7.60;4.03;;;;;;;10.39;100.00;100254.75;1604217;87;21129;-73
2021/06/02 05:57:17;;;;;;;8.13;5.58;;;;;;;10.38;100.00;100254.34;1573605;88;21152;-75
2021/06/02 05:59:55;;;;;;;6.45;3.20;;;;;;;10.34;100.00;100249.58;1611149;87;21422;-74
2021/06/02 06:03:03;;;;;;;7.17;5.15;;;;;;;10.32;100.00;100256.81;1544846;90;21759;-72
2021/06/02 06:06:03;;;;;;;11.18;5.58;;;;;;;10.32;100.00;100276.45;1581565;88;21223;-73
2021/06/02 06:09:05;;;;;;;6.75;4.97;;;;;;;10.35;100.00;100259.84;1565583;88;21645;-75
2021/06/02 06:11:42;;;;;;;9.33;5.72;;;;;;;10.34;100.00;100262.12;1603262;87;21139;-70
2021/06/02 06:14:49;;;;;;;12.13;7.03;;;;;;;10.34;100.00;100275.52;1617191;85;21443;-71
2021/06/02 06:17:50;;;;;;;12.10;8.00;;;;;;;10.35;100.00;100271.90;1618312;86;21218;-74
2021/06/02 06:20:48;;;;;;;18.17;12.28;;;;;;;10.38;100.00;100294.55;1620598;87;21606;-73
2021/06/02 06:23:53;;;;;;;16.35;11.38;;;;;;;10.38;100.00;100292.72;1622894;87;21133;-73
2021/06/02 06:26:38;;;;;;;11.03;6.62;;;;;;;10.41;100.00;100264.97;1623293;87;21501;-73
2021/06/02 06:29:35;;;;;;;10.93;6.70;;;;;;;10.43;100.00;100280.51;1617202;87;21137;-74
2021/06/02 06:32:04;;;;;;;18.23;9.30;;;;;;;10.45;100.00;100279.98;1622416;86;21162;-74
2021/06/02 06:34:33;;;;;;;8.20;5.28;;;;;;;10.48;100.00;100278.50;1621366;87;21620;-71
2021/06/02 06:37:01;;;;;;;15.98;9.85;;;;;;;10.47;100.00;100274.08;1619834;85;21108;-70
2021/06/02 06:39:48;;;;;;;5.90;4.33;;;;;;;10.46;100.00;100271.00;1612181;85;21101;-75
2021/06/02 06:42:23;;;;;;;6.50;3.25;;;;;;;10.45;100.00;100271.94;1605888;87;21049;-76
2021/06/02 06:44:53;;;;;;;4.22;3.22;;;;;;;10.44;100.00;100267.06;1610881;87;21502;-70
2021/06/02 06:47:19;;;;;;;5.33;3.37;;;;;;;10.43;100.00;100273.81;1610341;87;21037;-73
2021/06/02 06:49:49;;;;;;;2.77;2.12;;;;;;;10.44;100.00;100280.91;1613964;87;21220;-75
2021/06/02 06:52:16;;;;;;;4.58;2.83;;;;;;;10.45;100.00;100278.64;1618354;87;20998;-72
2021/06/02 06:54:43;;;;;;;4.55;2.20;;;;;;;10.44;100.00;100265.72;1616755;86;20977;-73
2021/06/02 06:57:09;;;;;;;4.95;2.45;;;;;;;10.48;100.00;100265.10;1619465;85;21593;-75
2021/06/02 06:59:37;;;;;;;3.35;2.60;;;;;;;10.50;100.00;100273.09;1619830;87;21584;-69
2021/06/02 07:02:03;;;;;;;4.72;2.58;;;;;;;10.50;100.00;100279.80;1558906;87;21145;-72
2021/06/02 07:04:31;;;;;;;3.60;2.22;;;;;;;10.52;100.00;100277.46;1615319;87;21537;-75
2021/06/02 07:06:58;;;;;;;4.62;2.70;;;;;;;10.54;100.00;100262.19;1581232;87;21183;-73
2021/06/02 07:09:25;;;;;;;5.72;3.20;;;;;;;10.55;100.00;100265.27;1614555;87;22238;-71
2021/06/02 07:11:55;;;;;;;4.25;2.00;;;;;;;10.62;100.00;100266.34;1621622;85;21593;-75
2021/06/02 07:14:24;;;;;;;4.70;2.60;;;;;;;10.65;100.00;100263.52;1617835;87;21177;-75
2021/06/02 07:16:51;;;;;;;4.30;2.45;;;;;;;10.68;100.00;100262.04;1602166;87;21038;-75
2021/06/02 07:19:21;;;;;;;4.08;2.33;;;;;;;10.74;100.00;100260.45;1622293;86;20942;-75
2021/06/02 07:21:50;;;;;;;6.80;3.00;;;;;;;10.78;100.00;100271.44;1599811;87;21525;-72
2021/06/02 07:24:19;;;;;;;5.60;2.37;;;;;;;10.80;100.00;100269.56;1608475;87;21017;-73
2021/06/02 07:26:47;;;;;;;6.95;2.67;;;;;;;10.86;100.00;100271.97;1606177;87;21038;-75
2021/06/02 07:29:14;;;;;;;4.05;2.58;;;;;;;10.92;100.00;100270.83;1587773;86;21179;-75
2021/06/02 07:31:40;;;;;;;17.30;4.37;;;;;;;10.95;100.00;100280.08;1605185;87;21144;-75
2021/06/02 07:34:07;;;;;;;3.50;2.35;;;;;;;10.99;100.00;100283.51;1615848;87;21144;-72
2021/06/02 07:36:34;;;;;;;4.37;2.40;;;;;;;11.06;100.00;100286.31;1615427;87;21036;-71
2021/06/02 07:39:04;;;;;;;6.45;2.95;;;;;;;11.08;100.00;100291.14;1619011;86;21184;-68
2021/06/02 07:41:30;;;;;;;6.25;2.58;;;;;;;11.13;100.00;100288.26;1629534;86;21130;-70
2021/06/02 07:43:58;;;;;;;10.98;4.28;;;;;;;11.18;100.00;100292.48;1609244;87;20981;-69
2021/06/02 07:46:25;;;;;;;3.98;2.27;;;;;;;11.24;100.00;100281.06;1617504;87;21188;-74
2021/06/02 07:48:51;;;;;;;2.47;1.67;;;;;;;11.29;100.00;100301.84;1606002;87;21171;-71
2021/06/02 07:51:19;;;;;;;5.22;2.17;;;;;;;11.27;100.00;100294.34;1621382;87;21176;-68
2021/06/02 07:53:46;;;;;;;5.35;3.37;;;;;;;11.30;100.00;100286.14;1614247;87;21075;-73
2021/06/02 07:56:14;;;;;;;4.65;2.80;;;;;;;11.34;100.00;100281.03;1614351;87;21680;-71
2021/06/02 07:58:42;;;;;;;8.05;2.83;;;;;;;11.35;100.00;100289.48;1617314;87;22189;-72
2021/06/02 08:01:09;;;;;;;5.72;3.65;;;;;;;11.36;100.00;100284.52;1618240;86;21156;-71
2021/06/02 08:03:36;;;;;;;7.30;3.47;;;;;;;11.38;100.00;100282.62;1619355;86;21175;-76
2021/06/02 08:06:05;;;;;;;5.03;2.83;;;;;;;11.39;100.00;100282.17;1609547;87;21144;-71
2021/06/02 08:08:31;;;;;;;5.10;2.85;;;;;;;11.40;100.00;100287.94;1616046;87;21079;-72
2021/06/02 08:10:59;;;;;;;7.58;2.98;;;;;;;11.43;100.00;100279.28;1615958;87;21016;-73
2021/06/02 08:13:26;;;;;;;4.22;2.40;;;;;;;11.46;100.00;100296.59;1609810;87;21133;-72
2021/06/02 08:15:54;;;;;;;4.92;1.90;;;;;;;11.49;100.00;100298.73;1612899;87;21669;-71
2021/06/02 08:18:21;;;;;;;8.65;3.65;;;;;;;11.52;100.00;100297.23;1587742;88;21538;-70
2021/06/02 08:20:49;;;;;;;3.83;2.50;;;;;;;11.52;100.00;100302.61;1617228;87;21170;-72
2021/06/02 08:23:15;;;;;;;3.70;2.47;;;;;;;11.53;100.00;100313.75;1615675;87;21472;-74
2021/06/02 08:25:43;;;;;;;3.02;2.25;;;;;;;11.56;100.00;100309.57;1616042;87;21684;-74
2021/06/02 08:28:11;;;;;;;5.15;2.95;;;;;;;11.57;100.00;100314.89;1624378;87;21534;-75
2021/06/02 08:30:38;;;;;;;5.33;2.37;;;;;;;11.57;100.00;100305.95;1616422;87;21148;-75
2021/06/02 08:33:07;;;;;;;9.40;2.85;;;;;;;11.53;100.00;100301.66;1615750;85;21128;-75
2021/06/02 08:35:34;;;;;;;6.17;3.00;;;;;;;11.52;100.00;100312.00;1626400;85;21480;-74
2021/06/02 08:38:02;;;;;;;6.53;3.10;;;;;;;11.49;100.00;100300.07;1623519;87;21073;-77
2021/06/02 08:40:42;;;;;;;3.25;2.50;;;;;;;11.44;100.00;100306.53;1613361;86;20967;-74
2021/06/02 08:43:21;;;;;;;5.78;2.50;;;;;;;11.42;100.00;100304.84;1630646;85;21046;-71
2021/06/02 08:45:48;;;;;;;7.42;2.98;;;;;;;11.40;100.00;100298.22;1609730;87;21727;-71
2021/06/02 08:48:15;;;;;;;8.38;3.12;;;;;;;11.42;100.00;100303.50;1617469;87;22364;-73
2021/06/02 08:50:43;;;;;;;4.72;2.67;;;;;;;11.45;100.00;100300.22;1611864;87;21145;-78
2021/06/02 08:53:58;;;;;;;6.08;4.40;;;;;;;11.56;100.00;100305.55;1790977;79;28103;-74
2021/06/02 08:56:25;;;;;;;3.00;2.08;;;;;;;11.50;100.00;100306.72;1762773;80;21092;-76
2021/06/02 08:58:52;;;;;;;6.72;2.30;;;;;;;11.55;100.00;100310.52;1763643;80;21208;-75
2021/06/02 09:01:19;;;;;;;7.47;2.60;;;;;;;11.60;100.00;100289.69;1761706;80;21031;-75
2021/06/02 09:03:47;;;;;;;3.85;1.55;;;;;;;11.64;100.00;100295.34;1757869;80;21002;-76
2021/06/02 09:06:14;;;;;;;7.08;1.98;;;;;;;11.63;100.00;100298.97;1760965;80;20936;-71
2021/06/02 09:08:42;;;;;;;4.05;2.20;;;;;;;11.66;100.00;100296.59;1768420;79;21500;-72
2021/06/02 09:11:15;;;;;;;5.20;2.08;;;;;;;11.69;100.00;100288.39;1759146;80;21125;-71
2021/06/02 09:13:43;;;;;;;3.00;1.80;;;;;;;11.78;100.00;100295.14;1688332;83;21336;-71
2021/06/02 09:16:30;;;;;;;8.93;2.35;;;;;;;11.86;100.00;100302.38;1723186;81;21049;-78
2021/06/02 09:19:03;;;;;;;2.90;1.92;;;;;;;11.93;100.00;100303.83;1718244;81;21133;-74
2021/06/02 09:21:31;;;;;;;2.77;2.02;;;;;;;12.02;100.00;100289.11;1722071;81;21123;-73
2021/06/02 09:23:59;;;;;;;3.30;1.65;;;;;;;12.10;100.00;100308.41;1687864;82;21225;-77
2021/06/02 09:26:27;;;;;;;3.98;2.27;;;;;;;12.16;100.00;100289.78;1712065;82;21064;-78
2021/06/02 09:29:10;;;;;;;3.05;1.65;;;;;;;12.20;100.00;100294.05;1696578;82;21051;-77
2021/06/02 09:31:42;;;;;;;4.05;1.77;;;;;;;12.23;100.00;100305.98;1719460;82;21127;-71
2021/06/02 09:34:22;;;;;;;4.10;1.57;;;;;;;12.28;100.00;100297.25;1713442;82;20976;-72
2021/06/02 09:36:56;;;;;;;6.35;2.15;;;;;;;12.29;100.00;100303.02;1713804;82;21497;-73
2021/06/02 09:39:22;;;;;;;2.08;1.35;;;;;;;12.29;100.00;100307.05;1715518;82;20989;-72
2021/06/02 09:41:54;;;;;;;3.15;1.62;;;;;;;12.31;100.00;100313.22;1712280;82;21111;-71
2021/06/02 09:44:27;;;;;;;3.58;2.00;;;;;;;12.35;100.00;100305.00;1712856;82;21130;-72
2021/06/02 09:47:08;;;;;;;2.72;1.70;;;;;;;12.36;100.00;100312.12;1718014;82;20928;-72
2021/06/02 09:49:48;;;;;;;3.50;1.40;;;;;;;12.30;100.00;100313.28;1714583;82;21108;-72
2021/06/02 09:52:17;;;;;;;3.87;2.50;;;;;;;12.30;100.00;100318.20;1707100;82;21400;-77
2021/06/02 09:54:44;;;;;;;1.98;1.50;;;;;;;12.29;100.00;100307.05;1692099;83;21120;-73
2021/06/02 09:57:12;;;;;;;7.35;2.33;;;;;;;12.29;100.00;100331.25;1685295;83;21068;-75
2021/06/02 10:00:00;;;;;;;6.37;2.92;;;;;;;12.28;100.00;100325.47;1689759;83;21055;-76
2021/06/02 10:02:27;;;;;;;7.15;2.10;;;;;;;12.30;100.00;100340.16;1696969;83;21693;-74
2021/06/02 10:05:09;;;;;;;4.58;2.15;;;;;;;12.29;100.00;100324.52;1694775;83;21556;-74
2021/06/02 10:07:47;;;;;;;1.87;1.60;;;;;;;12.28;100.00;100336.68;1680880;84;21105;-75
2021/06/02 10:10:19;;;;;;;3.47;1.40;;;;;;;12.24;100.00;100331.92;1695060;83;21478;-73
2021/06/02 10:13:06;;;;;;;3.27;1.50;;;;;;;12.20;100.00;100324.95;1693162;83;21458;-72
2021/06/02 10:15:42;;;;;;;3.40;2.10;;;;;;;12.17;100.00;100324.66;1669886;84;21160;-73
2021/06/02 10:18:30;;;;;;;5.72;3.20;;;;;;;12.17;100.00;100325.11;1700651;83;20957;-74
2021/06/02 10:21:05;;;;;;;1.95;1.27;;;;;;;12.16;100.00;100335.01;1688880;83;21287;-77
2021/06/02 10:23:40;;;;;;;1.87;1.07;;;;;;;12.18;100.00;100330.42;1694919;83;20988;-73
2021/06/02 10:26:07;;;;;;;2.37;1.15;;;;;;;12.20;100.00;100338.39;1692565;83;20995;-73
2021/06/02 10:28:36;;;;;;;2.52;1.42;;;;;;;12.23;100.00;100324.80;1700938;83;21029;-71
2021/06/02 10:31:05;;;;;;;11.33;3.05;;;;;;;12.27;100.00;100338.52;1674325;85;21108;-74
2021/06/02 10:33:33;;;;;;;1.77;1.20;;;;;;;12.30;100.00;100334.78;1691327;83;21521;-69
2021/06/02 10:36:01;;;;;;;4.53;1.60;;;;;;;12.34;100.00;100352.99;1694194;83;21586;-73
2021/06/02 10:38:47;;;;;;;6.65;1.95;;;;;;;12.36;100.00;100351.09;1732331;82;21027;-71
2021/06/02 10:41:27;;;;;;;3.33;1.60;;;;;;;12.40;100.00;100356.72;1732831;82;21369;-71
2021/06/02 10:43:58;;;;;;;5.97;2.40;;;;;;;12.40;100.00;100349.53;1739607;82;21530;-74
2021/06/02 10:46:27;;;;;;;6.33;2.20;;;;;;;12.45;100.00;100366.77;1741303;82;21123;-75
2021/06/02 10:48:57;;;;;;;9.75;4.00;;;;;;;12.47;100.00;100356.80;1740021;81;21019;-72
2021/06/02 10:51:27;;;;;;;2.92;1.70;;;;;;;12.51;100.00;100359.77;1709109;82;21100;-74
2021/06/02 10:54:13;;;;;;;3.80;1.55;;;;;;;12.54;100.00;100362.75;1753501;80;21569;-71
2021/06/02 10:56:44;;;;;;;5.08;1.27;;;;;;;12.54;100.00;100351.54;1755748;80;21744;-76
2021/06/02 10:59:30;;;;;;;4.80;1.85;;;;;;;12.56;100.00;100360.39;1756901;80;21068;-71
2021/06/02 11:02:15;;;;;;;13.13;3.33;;;;;;;12.59;100.00;100356.20;1753845;80;21160;-73
2021/06/02 11:05:01;;;;;;;9.93;3.42;;;;;;;12.64;100.00;100357.33;1753737;80;21119;-73
2021/06/02 11:07:33;;;;;;;6.72;3.47;;;;;;;12.70;100.00;100372.27;1759368;80;21574;-73
2021/06/02 11:10:12;;;;;;;2.22;1.52;;;;;;;12.71;100.00;100344.42;1754810;80;21420;-73
2021/06/02 11:13:02;;;;;;;1.55;0.93;;;;;;;12.74;100.00;100349.67;1758973;80;21095;-71
2021/06/02 11:15:34;;;;;;;7.30;3.27;;;;;;;12.73;100.00;100372.14;1759113;80;21073;-75
2021/06/02 11:18:18;;;;;;;2.58;1.57;;;;;;;12.72;100.00;100376.63;1753273;80;21071;-73
2021/06/02 11:20:57;;;;;;;3.02;1.75;;;;;;;12.71;100.00;100363.25;1756101;80;21637;-72
2021/06/02 11:23:34;;;;;;;2.62;1.40;;;;;;;12.70;100.00;100374.95;1760506;80;21518;-73
2021/06/02 11:26:26;;;;;;;2.83;1.77;;;;;;;12.68;100.00;100360.72;1737061;80;20945;-74
2021/06/02 11:28:55;;;;;;;7.03;4.08;;;;;;;12.67;100.00;100377.34;1759116;80;21024;-74
2021/06/02 11:31:28;;;;;;;2.90;2.22;;;;;;;12.68;100.00;100384.92;1758575;80;21167;-75
2021/06/02 11:34:27;;;;;;;14.70;9.25;;;;;;;12.69;100.00;100379.94;1761352;80;21075;-75
2021/06/02 11:37:01;;;;;;;31.20;20.37;;;;;;;12.69;100.00;100366.49;1757851;80;21051;-73
2021/06/02 11:39:29;;;;;;;9.95;5.80;;;;;;;12.74;100.00;100365.81;1760800;80;20956;-73
2021/06/02 11:41:58;;;;;;;5.87;4.00;;;;;;;12.78;100.00;100370.08;1759228;80;21500;-73
2021/06/02 11:44:34;;;;;;;14.53;9.10;;;;;;;12.81;100.00;100367.23;1706903;83;21084;-73
2021/06/02 11:47:00;;;;;;;9.00;6.25;;;;;;;12.85;100.00;100372.84;1698229;82;21657;-72
2021/06/02 11:49:33;;;;;;;5.40;2.27;;;;;;;12.89;100.00;100369.05;1758617;80;21058;-74
2021/06/02 11:52:12;;;;;;;12.33;7.17;;;;;;;12.95;100.00;100371.05;1755903;80;21601;-74
2021/06/02 11:54:59;;;;;;;9.90;3.30;;;;;;;13.03;100.00;100373.72;1750546;80;21048;-74
2021/06/02 11:57:36;;;;;;;7.30;3.08;;;;;;;13.13;100.00;100374.12;1747986;80;21100;-76
2021/06/02 12:00:11;;;;;;;11.43;7.25;;;;;;;13.16;100.00;100380.72;1751566;80;21558;-73
2021/06/02 12:02:38;;;;;;;7.70;5.95;;;;;;;13.22;100.00;100370.57;1748274;80;21112;-76
2021/06/02 12:05:24;;;;;;;4.05;3.25;;;;;;;13.27;100.00;100387.34;1748813;80;21147;-75
2021/06/02 12:08:01;;;;;;;9.98;4.08;;;;;;;13.27;100.00;100373.42;1749319;80;20957;-77
2021/06/02 12:10:40;;;;;;;13.55;7.42;;;;;;;13.30;100.00;100376.41;1748813;80;21032;-73
2021/06/02 12:13:28;;;;;;;23.47;13.83;;;;;;;13.30;100.00;100397.48;1745592;80;21036;-71